Time;durP1;ratioP1;P1;durP2;ratioP2;P2;SDS_P1;SDS_P2;PMS_P1;PMS_P2;Temp;Humidity;BMP_temperature;BMP_pressure;BME280_temperature;BME280_humidity;BME280_pressure;Samples;Min_cycle;Max_cycle;Signal;HPM_P1;HPM_P2
2023/05/17 00:00:09;;;;;;;0.70;0.60;;;;;;;11.86;100.00;99110.97;4862643;29;20404;-90
2023/05/17 00:02:35;;;;;;;0.85;0.47;;;;;;;11.67;100.00;99073.34;4861878;29;20122;-90
2023/05/17 00:05:01;;;;;;;0.63;0.63;;;;;;;11.70;100.00;99086.31;4860546;29;20045;-90
2023/05/17 00:07:26;;;;;;;0.32;0.32;;;;;;;11.70;100.00;99078.75;4861599;29;20040;-90
2023/05/17 00:09:52;;;;;;;0.30;0.15;;;;;;;11.93;100.00;99124.53;4863385;29;20060;-91
2023/05/17 00:12:18;;;;;;;0.57;0.57;;;;;;;12.03;100.00;99150.31;4862936;29;20049;-90
2023/05/17 00:14:43;;;;;;;0.30;0.30;;;;;;;12.00;100.00;99142.91;4861900;29;20053;-90
2023/05/17 00:17:09;;;;;;;1.05;1.02;;;;;;;12.05;100.00;99165.25;4861495;29;20135;-89
2023/05/17 00:19:34;;;;;;;0.45;0.45;;;;;;;11.81;100.00;99116.41;4863536;29;20089;-90
2023/05/17 00:22:00;;;;;;;4.97;1.02;;;;;;;12.04;100.00;99162.97;4861804;29;20041;-91
2023/05/17 00:24:26;;;;;;;0.38;0.38;;;;;;;11.69;100.00;99106.97;4863080;29;20125;-90
2023/05/17 00:26:51;;;;;;;0.93;0.77;;;;;;;11.81;100.00;99139.38;4853428;29;20056;-90
2023/05/17 00:29:17;;;;;;;0.55;0.55;;;;;;;11.86;100.00;99140.78;4849716;29;20041;-89
2023/05/17 00:31:43;;;;;;;0.17;0.15;;;;;;;11.79;100.00;99116.88;4860780;29;20062;-89
2023/05/17 00:34:08;;;;;;;0.10;0.10;;;;;;;11.95;100.00;99155.41;4862544;29;20041;-90
2023/05/17 00:36:34;;;;;;;0.17;0.17;;;;;;;11.96;100.00;99151.41;4863685;29;20064;-90
2023/05/17 00:39:00;;;;;;;1.52;0.73;;;;;;;11.87;100.00;99143.09;4844380;29;20092;-89
2023/05/17 00:41:26;;;;;;;0.82;0.65;;;;;;;12.05;100.00;99170.81;4851340;29;20419;-89
2023/05/17 00:43:52;;;;;;;0.38;0.38;;;;;;;11.89;100.00;99145.41;4859691;29;20083;-90
2023/05/17 00:46:17;;;;;;;0.52;0.52;;;;;;;11.81;100.00;99128.28;4835762;29;20041;-91
2023/05/17 00:48:43;;;;;;;0.40;0.40;;;;;;;11.70;100.00;99117.63;4845120;29;20052;-90
2023/05/17 00:51:09;;;;;;;0.10;0.10;;;;;;;11.70;100.00;99105.75;4865928;29;20045;-91
2023/05/17 00:53:36;;;;;;;0.73;0.47;;;;;;;11.73;100.00;99099.28;4849608;29;20040;-90
2023/05/17 00:56:03;;;;;;;0.20;0.20;;;;;;;11.74;100.00;99106.38;4858242;29;20052;-91
2023/05/17 00:58:29;;;;;;;1.77;1.02;;;;;;;11.79;100.00;99119.66;4849091;29;20084;-90
2023/05/17 01:00:55;;;;;;;0.30;0.30;;;;;;;11.81;100.00;99122.72;4860603;29;20048;-89
2023/05/17 01:03:23;;;;;;;0.20;0.20;;;;;;;11.81;100.00;99127.53;4862786;29;20049;-90
2023/05/17 01:05:50;;;;;;;1.13;0.73;;;;;;;12.05;100.00;99159.69;4852691;29;20056;-89
2023/05/17 01:08:17;;;;;;;0.32;0.32;;;;;;;11.77;100.00;99127.66;4852859;29;20692;-89
2023/05/17 01:10:53;;;;;;;0.10;0.10;;;;;;;12.04;100.00;99169.31;4864846;29;20112;-96
2023/05/17 01:13:32;;;;;;;1.23;0.85;;;;;;;11.73;100.00;99115.94;4858766;29;20145;-96
2023/05/17 01:16:12;;;;;;;0.30;0.30;;;;;;;11.64;100.00;99108.41;4854428;29;20142;-96
2023/05/17 01:19:04;;;;;;;0.32;0.32;;;;;;;12.04;100.00;99163.75;4851179;29;20064;-95
2023/05/17 01:21:51;;;;;;;0.75;0.75;;;;;;;11.74;100.00;99116.72;4838645;29;20041;-96
2023/05/17 01:24:39;;;;;;;0.98;0.77;;;;;;;12.01;100.00;99159.09;4852225;29;20456;-95
2023/05/17 01:27:06;;;;;;;0.75;0.70;;;;;;;11.64;100.00;99110.41;4841993;29;20645;-95
2023/05/17 01:29:32;;;;;;;0.80;0.80;;;;;;;11.77;100.00;99122.09;4849323;29;20045;-94
2023/05/17 01:31:58;;;;;;;0.93;0.50;;;;;;;11.97;100.00;99164.03;4854348;29;20515;-96
2023/05/17 01:34:28;;;;;;;0.38;0.38;;;;;;;11.91;100.00;99149.25;4844787;29;20496;-95
2023/05/17 01:36:56;;;;;;;0.43;0.40;;;;;;;11.97;100.00;99154.97;4861629;29;20073;-96
2023/05/17 01:39:22;;;;;;;0.10;0.10;;;;;;;11.98;100.00;99165.59;4824994;29;20045;-91
2023/05/17 01:42:14;;;;;;;1.13;0.65;;;;;;;11.96;100.00;99173.66;4861582;29;20049;-90
2023/05/17 01:44:45;;;;;;;0.77;0.77;;;;;;;11.81;100.00;99155.31;4851094;29;20446;-91
2023/05/17 01:47:15;;;;;;;0.00;0.00;;;;;;;11.95;100.00;99177.66;4865847;29;20807;-91
2023/05/17 01:49:47;;;;;;;0.77;0.77;;;;;;;11.79;100.00;99153.00;4849862;29;20730;-91
2023/05/17 01:52:18;;;;;;;0.43;0.43;;;;;;;11.64;100.00;99115.97;4837665;29;20428;-91
2023/05/17 01:54:50;;;;;;;1.20;0.68;;;;;;;11.77;100.00;99149.91;4853098;29;20041;-91
2023/05/17 01:57:19;;;;;;;0.27;0.27;;;;;;;11.92;100.00;99170.25;4853433;29;21252;-90
2023/05/17 01:59:45;;;;;;;0.88;0.28;;;;;;;11.65;100.00;99136.94;4864373;29;21237;-91
2023/05/17 02:02:12;;;;;;;0.55;0.50;;;;;;;11.72;100.00;99156.09;4862549;29;20464;-91
2023/05/17 02:04:38;;;;;;;0.75;0.65;;;;;;;11.69;100.00;99143.09;4866250;29;20124;-91
2023/05/17 02:07:04;;;;;;;0.32;0.30;;;;;;;11.87;100.00;99170.88;4864856;29;20048;-95
2023/05/17 02:09:30;;;;;;;1.13;0.52;;;;;;;11.81;100.00;99167.19;4837555;29;20092;-96
2023/05/17 02:11:55;;;;;;;0.30;0.30;;;;;;;11.56;100.00;99136.97;4865356;29;20137;-96
2023/05/17 02:14:21;;;;;;;0.00;0.00;;;;;;;11.50;100.00;99124.91;4852864;29;20410;-96
2023/05/17 02:16:47;;;;;;;0.30;0.30;;;;;;;11.51;100.00;99126.47;4852787;29;20385;-96
2023/05/17 02:19:13;;;;;;;0.20;0.20;;;;;;;11.83;100.00;99181.38;4827526;29;20052;-96
2023/05/17 02:21:39;;;;;;;0.70;0.70;;;;;;;11.65;100.00;99159.16;4839306;29;20124;-95
2023/05/17 02:24:05;;;;;;;3.85;2.17;;;;;;;11.64;100.00;99152.06;4841272;29;20140;-94
2023/05/17 02:26:31;;;;;;;0.98;0.70;;;;;;;11.42;100.00;99118.91;4827938;29;20068;-94
2023/05/17 02:28:57;;;;;;;0.00;0.00;;;;;;;11.53;100.00;99154.53;4839931;29;20167;-95
2023/05/17 02:31:26;;;;;;;0.35;0.35;;;;;;;11.53;100.00;99143.44;4826023;29;20135;-95
2023/05/17 02:33:52;;;;;;;0.00;0.00;;;;;;;11.39;100.00;99130.97;4840659;29;20092;-94
2023/05/17 02:36:18;;;;;;;0.20;0.20;;;;;;;11.68;100.00;99172.13;4852933;29;20044;-91
2023/05/17 02:38:44;;;;;;;0.75;0.57;;;;;;;11.65;100.00;99178.59;4836513;29;20073;-91
2023/05/17 02:41:11;;;;;;;0.38;0.38;;;;;;;11.62;100.00;99177.53;4852985;29;20106;-91
2023/05/17 02:43:36;;;;;;;0.63;0.63;;;;;;;11.61;100.00;99187.09;4851323;29;20048;-92
2023/05/17 02:46:02;;;;;;;0.40;0.30;;;;;;;11.58;100.00;99187.25;4857137;29;20044;-90
2023/05/17 02:48:28;;;;;;;0.32;0.32;;;;;;;11.52;100.00;99178.00;4850091;29;20044;-91
2023/05/17 02:50:53;;;;;;;1.08;1.08;;;;;;;11.54;100.00;99183.84;4844932;29;20053;-90
2023/05/17 02:53:19;;;;;;;1.38;0.60;;;;;;;11.57;100.00;99186.47;4846017;29;20069;-91
2023/05/17 02:55:45;;;;;;;0.08;0.08;;;;;;;11.54;100.00;99192.19;4842917;29;20040;-90
2023/05/17 02:58:11;;;;;;;0.00;0.00;;;;;;;11.42;100.00;99162.56;4844460;29;20484;-90
2023/05/17 03:00:37;;;;;;;0.30;0.30;;;;;;;11.46;100.00;99185.41;4846709;29;20077;-90
2023/05/17 03:03:02;;;;;;;0.15;0.08;;;;;;;11.32;100.00;99174.94;4858707;29;20049;-90
2023/05/17 03:05:28;;;;;;;2.17;0.80;;;;;;;11.47;100.00;99207.16;4845053;29;20065;-93
2023/05/17 03:07:55;;;;;;;0.10;0.10;;;;;;;11.35;100.00;99191.44;4857046;29;20414;-94
2023/05/17 03:10:21;;;;;;;0.77;0.77;;;;;;;11.43;100.00;99209.31;4846739;29;20085;-95
2023/05/17 03:12:47;;;;;;;0.00;0.00;;;;;;;11.43;100.00;99214.88;4838961;29;20048;-93
2023/05/17 03:15:16;;;;;;;0.00;0.00;;;;;;;11.25;100.00;99195.44;4844036;29;20042;-94
2023/05/17 03:17:42;;;;;;;0.32;0.32;;;;;;;11.46;100.00;99240.94;4842527;29;20070;-94
2023/05/17 03:20:08;;;;;;;0.00;0.00;;;;;;;11.40;100.00;99228.91;4841591;29;20045;-91
2023/05/17 03:22:35;;;;;;;0.20;0.20;;;;;;;11.47;100.00;99253.59;4836928;29;20045;-92
2023/05/17 03:25:01;;;;;;;0.10;0.10;;;;;;;11.36;100.00;99242.19;4872157;29;20033;-90
2023/05/17 03:27:27;;;;;;;0.20;0.20;;;;;;;11.38;100.00;99250.81;4854131;29;20117;-90
2023/05/17 03:29:53;;;;;;;0.38;0.38;;;;;;;11.23;100.00;99228.44;4865093;29;20572;-91
2023/05/17 03:32:20;;;;;;;0.00;0.00;;;;;;;11.30;100.00;99250.34;4838571;29;20237;-91
2023/05/17 03:34:45;;;;;;;0.10;0.10;;;;;;;11.11;100.00;99221.78;4871424;29;20097;-91
2023/05/17 03:37:11;;;;;;;0.00;0.00;;;;;;;11.18;100.00;99254.81;4871955;29;20415;-91
2023/05/17 03:39:37;;;;;;;0.00;0.00;;;;;;;11.23;100.00;99261.75;4840331;29;20559;-91
2023/05/17 03:42:02;;;;;;;0.30;0.30;;;;;;;11.12;100.00;99251.06;4839883;29;20057;-90
2023/05/17 03:44:30;;;;;;;0.00;0.00;;;;;;;11.06;100.00;99241.81;4852410;29;20105;-91
2023/05/17 03:46:56;;;;;;;0.10;0.10;;;;;;;11.39;100.00;99291.22;4873324;29;20050;-91
2023/05/17 03:49:23;;;;;;;0.00;0.00;;;;;;;11.21;100.00;99270.53;4856320;29;20186;-91
2023/05/17 03:51:49;;;;;;;0.00;0.00;;;;;;;11.31;100.00;99287.97;4856568;29;20058;-91
2023/05/17 03:54:16;;;;;;;0.10;0.10;;;;;;;11.29;100.00;99295.22;4852512;29;20045;-91
2023/05/17 03:56:45;;;;;;;0.22;0.08;;;;;;;11.21;100.00;99292.72;4847978;29;20037;-91
2023/05/17 03:59:12;;;;;;;0.00;0.00;;;;;;;11.18;100.00;99299.22;4838469;29;20050;-90
2023/05/17 04:01:38;;;;;;;0.45;0.45;;;;;;;11.17;100.00;99297.66;4839385;29;20042;-91
2023/05/17 04:04:04;;;;;;;0.20;0.20;;;;;;;11.17;100.00;99297.66;4838347;29;20194;-90
2023/05/17 04:06:31;;;;;;;0.45;0.45;;;;;;;11.23;100.00;99300.63;4835816;29;20045;-91
2023/05/17 04:08:58;;;;;;;1.17;0.70;;;;;;;11.14;100.00;99279.16;4848837;29;20408;-91
2023/05/17 04:11:26;;;;;;;0.68;0.68;;;;;;;11.27;100.00;99300.47;4836912;29;20114;-91
2023/05/17 04:13:52;;;;;;;0.25;0.15;;;;;;;11.24;100.00;99302.91;4816567;29;20042;-91
2023/05/17 04:16:18;;;;;;;0.20;0.10;;;;;;;11.14;100.00;99306.91;4835929;29;20046;-90
2023/05/17 04:18:44;;;;;;;0.10;0.10;;;;;;;11.13;100.00;99308.13;4836173;29;20124;-91
2023/05/17 04:21:11;;;;;;;0.22;0.17;;;;;;;10.98;100.00;99293.28;4849673;29;20045;-91
2023/05/17 04:23:38;;;;;;;0.03;0.03;;;;;;;11.05;100.00;99309.66;4838174;29;20046;-91
2023/05/17 04:26:04;;;;;;;0.00;0.00;;;;;;;11.15;100.00;99321.56;4837606;29;20050;-91
2023/05/17 04:28:36;;;;;;;0.43;0.43;;;;;;;11.13;100.00;99322.00;4819252;29;20041;-90
2023/05/17 04:31:06;;;;;;;0.10;0.10;;;;;;;11.03;100.00;99301.03;4839997;29;20202;-94
2023/05/17 04:33:32;;;;;;;0.10;0.10;;;;;;;11.06;100.00;99316.75;4836899;29;20058;-94
2023/05/17 04:35:58;;;;;;;2.50;1.10;;;;;;;10.89;100.00;99265.50;4841684;29;20041;-93
2023/05/17 04:38:25;;;;;;;0.10;0.10;;;;;;;11.08;100.00;99325.38;4833088;29;20528;-93
2023/05/17 04:40:51;;;;;;;0.00;0.00;;;;;;;10.81;100.00;99289.22;4838651;29;20132;-94
2023/05/17 04:43:17;;;;;;;0.00;0.00;;;;;;;10.81;100.00;99292.00;4844020;29;20090;-96
2023/05/17 04:45:43;;;;;;;0.10;0.10;;;;;;;10.91;100.00;99313.00;4824183;29;20041;-92
2023/05/17 04:48:09;;;;;;;0.00;0.00;;;;;;;10.92;100.00;99300.66;4835926;29;20093;-93
2023/05/17 04:50:35;;;;;;;0.28;0.28;;;;;;;10.95;100.00;99308.09;4822154;29;20472;-92
2023/05/17 04:53:01;;;;;;;0.52;0.20;;;;;;;10.89;100.00;99298.81;4838053;29;20042;-92
2023/05/17 04:55:29;;;;;;;0.30;0.30;;;;;;;11.03;100.00;99317.69;4853815;29;20063;-91
2023/05/17 04:57:56;;;;;;;0.10;0.10;;;;;;;11.06;100.00;99319.53;4851663;29;20041;-92
2023/05/17 05:00:23;;;;;;;0.10;0.10;;;;;;;10.84;100.00;99285.53;4851462;29;20041;-92
2023/05/17 05:02:57;;;;;;;0.00;0.00;;;;;;;11.10;100.00;99320.16;4852019;29;20067;-91
2023/05/17 05:05:24;;;;;;;0.00;0.00;;;;;;;11.03;100.00;99316.91;4850137;29;20056;-92
2023/05/17 05:07:50;;;;;;;0.38;0.38;;;;;;;11.16;100.00;99331.44;4849580;29;20509;-91
2023/05/17 05:10:16;;;;;;;0.13;0.13;;;;;;;10.98;100.00;99300.84;4854316;29;20528;-91
2023/05/17 05:12:43;;;;;;;0.03;0.03;;;;;;;11.20;100.00;99335.59;4830064;29;20033;-91
2023/05/17 05:15:10;;;;;;;0.00;0.00;;;;;;;10.83;100.00;99283.22;4825305;29;20292;-91
2023/05/17 05:17:37;;;;;;;0.00;0.00;;;;;;;11.26;100.00;99346.09;4876891;29;20053;-90
2023/05/17 05:20:03;;;;;;;1.10;0.75;;;;;;;10.88;100.00;99285.41;4871944;29;20128;-91
2023/05/17 05:22:29;;;;;;;0.20;0.20;;;;;;;11.01;100.00;99328.44;4862922;29;20400;-91
2023/05/17 05:24:55;;;;;;;0.20;0.20;;;;;;;11.07;100.00;99326.63;4872784;29;20040;-90
2023/05/17 05:27:21;;;;;;;0.20;0.20;;;;;;;10.93;100.00;99316.09;4864530;29;20041;-91
2023/05/17 05:29:47;;;;;;;0.20;0.20;;;;;;;10.97;100.00;99332.59;4854266;29;20112;-91
2023/05/17 05:32:14;;;;;;;0.10;0.10;;;;;;;10.94;100.00;99323.19;4865057;29;20569;-90
2023/05/17 05:34:44;;;;;;;0.10;0.10;;;;;;;11.18;100.00;99363.06;4871979;29;20045;-90
2023/05/17 05:37:09;;;;;;;0.17;0.17;;;;;;;11.19;100.00;99364.63;4842893;29;20128;-90
2023/05/17 05:39:35;;;;;;;0.00;0.00;;;;;;;11.05;100.00;99323.53;4843855;29;20049;-91
2023/05/17 05:42:03;;;;;;;0.40;0.40;;;;;;;11.10;100.00;99342.38;4889967;29;20052;-90
2023/05/17 05:44:29;;;;;;;0.20;0.20;;;;;;;11.16;100.00;99357.19;4863953;29;20408;-90
2023/05/17 05:46:55;;;;;;;0.00;0.00;;;;;;;11.35;100.00;99385.78;4828331;29;20144;-89
2023/05/17 05:49:21;;;;;;;0.10;0.10;;;;;;;11.22;100.00;99374.00;4871001;29;20049;-89
2023/05/17 05:51:47;;;;;;;0.20;0.20;;;;;;;11.31;100.00;99392.72;4842041;29;20049;-89
2023/05/17 05:54:15;;;;;;;0.32;0.32;;;;;;;11.19;100.00;99394.38;4856731;29;20576;-94
2023/05/17 05:56:41;;;;;;;0.10;0.10;;;;;;;11.05;100.00;99384.59;4850741;29;20044;-95
2023/05/17 05:59:09;;;;;;;0.00;0.00;;;;;;;10.97;100.00;99371.44;4874145;29;20109;-95
2023/05/17 06:01:35;;;;;;;0.00;0.00;;;;;;;10.95;100.00;99365.59;4860233;29;20049;-96
2023/05/17 06:04:00;;;;;;;0.32;0.32;;;;;;;10.92;100.00;99377.59;4876016;29;20053;-95
2023/05/17 06:06:26;;;;;;;0.00;0.00;;;;;;;10.78;100.00;99359.50;4855251;29;20097;-96
2023/05/17 06:08:52;;;;;;;0.10;0.10;;;;;;;11.09;100.00;99398.31;4844002;29;20137;-94
2023/05/17 06:11:19;;;;;;;0.00;0.00;;;;;;;11.12;100.00;99409.28;4867325;29;20401;-95
2023/05/17 06:13:45;;;;;;;0.10;0.10;;;;;;;10.92;100.00;99361.69;4863859;29;20072;-96
2023/05/17 06:16:11;;;;;;;0.65;0.65;;;;;;;10.95;100.00;99362.81;4861519;29;20133;-94
2023/05/17 06:18:36;;;;;;;0.10;0.10;;;;;;;11.11;100.00;99404.19;4865751;29;20077;-95
2023/05/17 06:21:02;;;;;;;0.08;0.08;;;;;;;11.22;100.00;99410.09;4862214;29;20052;-95
2023/05/17 06:23:28;;;;;;;0.03;0.03;;;;;;;11.19;100.00;99406.25;4862827;29;20542;-93
2023/05/17 06:25:54;;;;;;;0.28;0.25;;;;;;;10.94;100.00;99356.47;4877407;29;20041;-95
2023/05/17 06:28:20;;;;;;;0.00;0.00;;;;;;;10.90;100.00;99339.19;4861607;29;20037;-95
2023/05/17 06:30:46;;;;;;;0.30;0.30;;;;;;;11.25;100.00;99403.63;4858368;29;20052;-94
2023/05/17 06:33:11;;;;;;;0.05;0.05;;;;;;;11.28;100.00;99416.63;4827374;29;20567;-95
2023/05/17 06:35:37;;;;;;;0.00;0.00;;;;;;;10.97;100.00;99372.22;4846753;29;20052;-96
2023/05/17 06:38:03;;;;;;;0.00;0.00;;;;;;;10.97;100.00;99379.75;4862024;29;20112;-95
2023/05/17 06:40:28;;;;;;;0.03;0.03;;;;;;;10.88;100.00;99390.84;4846188;29;20468;-91
2023/05/17 06:42:54;;;;;;;0.10;0.10;;;;;;;11.17;100.00;99447.56;4876296;29;20056;-90
2023/05/17 06:45:20;;;;;;;0.10;0.10;;;;;;;10.82;100.00;99404.50;4847231;29;20048;-90
2023/05/17 06:47:46;;;;;;;0.00;0.00;;;;;;;10.72;100.00;99422.31;4876367;29;20041;-90
2023/05/17 06:50:12;;;;;;;0.15;0.05;;;;;;;10.83;100.00;99447.69;4886362;29;20082;-91
2023/05/17 06:52:38;;;;;;;0.00;0.00;;;;;;;10.81;100.00;99464.00;4864027;29;20048;-91
2023/05/17 06:55:04;;;;;;;0.10;0.10;;;;;;;10.91;100.00;99456.50;4877270;29;20448;-91
2023/05/17 06:57:30;;;;;;;0.03;0.03;;;;;;;10.86;100.00;99471.75;4876225;29;20041;-91
2023/05/17 06:59:56;;;;;;;0.00;0.00;;;;;;;10.90;100.00;99483.47;4877044;29;20048;-90
2023/05/17 07:02:22;;;;;;;0.00;0.00;;;;;;;10.79;100.00;99452.59;4873589;29;20041;-91
2023/05/17 07:04:47;;;;;;;0.20;0.20;;;;;;;10.99;100.00;99486.31;4868109;29;20530;-90
2023/05/17 07:07:16;;;;;;;0.13;0.13;;;;;;;11.02;100.00;99479.09;4872216;29;20131;-90
2023/05/17 07:09:41;;;;;;;0.00;0.00;;;;;;;11.14;100.00;99492.88;4875732;29;20100;-89
2023/05/17 07:12:07;;;;;;;0.35;0.35;;;;;;;10.90;100.00;99471.59;4886811;29;20053;-90
2023/05/17 07:14:32;;;;;;;0.15;0.13;;;;;;;10.98;100.00;99479.22;4858931;29;20053;-90
2023/05/17 07:16:58;;;;;;;2.65;0.40;;;;;;;11.14;100.00;99489.34;4860576;29;20049;-90
2023/05/17 07:19:25;;;;;;;0.00;0.00;;;;;;;11.16;100.00;99484.13;4859845;29;20073;-91
2023/05/17 07:21:51;;;;;;;0.10;0.10;;;;;;;11.25;100.00;99498.03;4861751;29;20503;-95
2023/05/17 07:24:16;;;;;;;0.00;0.00;;;;;;;11.07;100.00;99459.06;4851905;29;20057;-95
2023/05/17 07:26:42;;;;;;;0.08;0.08;;;;;;;11.23;100.00;99479.06;4843540;29;20548;-95
2023/05/17 07:29:08;;;;;;;0.32;0.32;;;;;;;11.20;100.00;99466.06;4837231;29;20042;-95
2023/05/17 07:31:34;;;;;;;0.08;0.08;;;;;;;11.06;100.00;99422.22;4872077;29;20488;-96
2023/05/17 07:33:59;;;;;;;0.05;0.05;;;;;;;11.31;100.00;99428.81;4839150;29;20624;-94
2023/05/17 07:36:29;;;;;;;0.00;0.00;;;;;;;11.31;100.00;99428.81;4862495;29;20522;-96
2023/05/17 07:38:55;;;;;;;0.00;0.00;;;;;;;11.58;100.00;99467.78;4861118;29;20049;-96
2023/05/17 07:41:22;;;;;;;0.03;0.03;;;;;;;11.44;100.00;99471.13;4855956;29;20045;-96
2023/05/17 07:43:48;;;;;;;0.00;0.00;;;;;;;11.54;100.00;99501.25;4830389;29;20431;-96
2023/05/17 07:46:14;;;;;;;0.30;0.20;;;;;;;11.38;100.00;99487.63;4858069;29;20105;-94
2023/05/17 07:48:40;;;;;;;0.22;0.22;;;;;;;11.34;100.00;99484.19;4854277;29;20605;-91
2023/05/17 07:51:05;;;;;;;0.35;0.32;;;;;;;11.08;100.00;99455.81;4866194;29;20110;-91
2023/05/17 07:53:31;;;;;;;0.20;0.20;;;;;;;11.47;100.00;99503.53;4866674;29;20088;-92
2023/05/17 07:55:57;;;;;;;0.17;0.17;;;;;;;11.47;100.00;99481.31;4875231;29;20052;-92
2023/05/17 07:58:22;;;;;;;1.42;1.10;;;;;;;11.63;100.00;99489.41;4882611;29;20056;-91
2023/05/17 08:00:48;;;;;;;0.13;0.13;;;;;;;11.72;100.00;99514.50;4875201;29;20049;-91
2023/05/17 08:03:13;;;;;;;0.45;0.40;;;;;;;11.79;100.00;99525.31;4872558;29;20053;-91
2023/05/17 08:05:39;;;;;;;0.20;0.20;;;;;;;11.81;100.00;99522.09;4874577;29;20041;-92
2023/05/17 08:08:05;;;;;;;0.17;0.17;;;;;;;11.63;100.00;99517.19;4890530;29;20050;-89
2023/05/17 08:10:30;;;;;;;0.80;0.40;;;;;;;11.52;100.00;99519.63;4890606;29;20049;-89
2023/05/17 08:12:56;;;;;;;0.00;0.00;;;;;;;11.28;100.00;99549.13;4864836;29;20052;-89
2023/05/17 08:15:22;;;;;;;0.25;0.25;;;;;;;11.35;100.00;99557.16;4858239;29;20045;-94
2023/05/17 08:17:47;;;;;;;2.17;1.30;;;;;;;11.01;100.00;99528.25;4837278;29;20056;-94
2023/05/17 08:20:14;;;;;;;0.80;0.55;;;;;;;10.90;100.00;99535.44;4858276;29;20049;-94
2023/05/17 08:22:40;;;;;;;0.00;0.00;;;;;;;10.70;100.00;99541.28;4869205;29;20128;-94
2023/05/17 08:25:06;;;;;;;0.00;0.00;;;;;;;10.65;100.00;99505.78;4846207;29;20155;-95
2023/05/17 08:27:31;;;;;;;0.25;0.25;;;;;;;10.62;100.00;99539.97;4856489;29;20029;-94
2023/05/17 08:29:58;;;;;;;0.05;0.05;;;;;;;10.51;100.00;99528.50;4820574;29;20460;-96
2023/05/17 08:32:24;;;;;;;0.00;0.00;;;;;;;10.63;100.00;99558.19;4852984;29;20041;-94
2023/05/17 08:34:50;;;;;;;0.00;0.00;;;;;;;10.66;100.00;99558.06;4845143;29;20059;-95
2023/05/17 08:37:17;;;;;;;0.00;0.00;;;;;;;10.78;100.00;99578.66;4829404;29;20037;-94
2023/05/17 08:39:43;;;;;;;0.00;0.00;;;;;;;10.56;100.00;99569.50;4830569;29;20041;-95
2023/05/17 08:42:09;;;;;;;0.00;0.00;;;;;;;10.76;100.00;99589.41;4860619;29;20490;-96
2023/05/17 08:44:35;;;;;;;0.10;0.10;;;;;;;10.27;100.00;99553.81;4846728;29;20065;-93
2023/05/17 08:47:02;;;;;;;0.10;0.10;;;;;;;10.49;100.00;99575.28;4859673;29;20037;-91
2023/05/17 08:49:30;;;;;;;0.13;0.13;;;;;;;10.41;100.00;99573.97;4889186;29;20044;-92
2023/05/17 08:51:58;;;;;;;1.40;1.13;;;;;;;10.57;100.00;99596.00;4874307;29;20056;-91
2023/05/17 08:54:24;;;;;;;0.15;0.15;;;;;;;10.65;100.00;99616.75;4860143;29;20502;-92
2023/05/17 08:56:56;;;;;;;0.10;0.10;;;;;;;10.63;100.00;99614.44;4889847;29;20607;-91
2023/05/17 08:59:21;;;;;;;0.32;0.32;;;;;;;10.55;100.00;99638.06;4874390;29;20128;-91
2023/05/17 09:01:50;;;;;;;0.25;0.25;;;;;;;10.38;100.00;99603.38;4874646;29;20045;-90
2023/05/17 09:04:16;;;;;;;1.30;0.57;;;;;;;10.24;100.00;99587.97;4860842;29;20169;-92
2023/05/17 09:06:43;;;;;;;0.00;0.00;;;;;;;10.23;100.00;99603.03;4875712;29;20170;-92
2023/05/17 09:09:09;;;;;;;0.10;0.10;;;;;;;10.19;100.00;99596.09;4875003;29;20109;-90
2023/05/17 09:11:35;;;;;;;0.20;0.20;;;;;;;10.45;100.00;99630.88;4874887;29;20511;-92
2023/05/17 09:14:03;;;;;;;0.80;0.30;;;;;;;10.44;100.00;99643.19;4866482;29;20173;-91
2023/05/17 09:16:34;;;;;;;0.95;0.65;;;;;;;10.37;100.00;99642.63;4873831;29;20060;-90
2023/05/17 09:19:00;;;;;;;0.00;0.00;;;;;;;10.45;100.00;99663.38;4873398;29;20049;-91
2023/05/17 09:21:27;;;;;;;0.10;0.10;;;;;;;10.37;100.00;99678.66;4864770;29;20057;-91
2023/05/17 09:23:54;;;;;;;0.38;0.38;;;;;;;10.41;100.00;99687.66;4874546;29;20048;-91
2023/05/17 09:26:20;;;;;;;0.00;0.00;;;;;;;10.34;100.00;99672.03;4845113;29;20045;-92
2023/05/17 09:28:47;;;;;;;3.20;0.85;;;;;;;10.28;100.00;99660.72;4838538;29;20540;-91
2023/05/17 09:31:15;;;;;;;1.30;0.60;;;;;;;10.19;100.00;99655.06;4880938;29;20132;-91
2023/05/17 09:33:49;;;;;;;0.25;0.25;;;;;;;10.43;100.00;99679.69;4842558;29;20045;-91
2023/05/17 09:36:22;;;;;;;0.00;0.00;;;;;;;10.31;100.00;99663.81;4858687;29;20049;-92
2023/05/17 09:39:13;;;;;;;0.08;0.08;;;;;;;10.38;100.00;99669.13;4837454;29;20544;-91
2023/05/17 09:41:46;;;;;;;0.20;0.20;;;;;;;10.36;100.00;99688.97;4835542;29;20108;-91
2023/05/17 09:44:12;;;;;;;0.10;0.10;;;;;;;10.38;100.00;99708.75;4849698;29;20089;-93
2023/05/17 09:46:46;;;;;;;0.52;0.50;;;;;;;9.96;100.00;99655.34;4839514;29;20389;-91
2023/05/17 09:49:12;;;;;;;0.30;0.17;;;;;;;10.17;100.00;99684.44;4864509;29;20044;-90
2023/05/17 09:51:43;;;;;;;0.35;0.35;;;;;;;9.86;100.00;99667.53;4861836;29;20066;-91
2023/05/17 09:54:10;;;;;;;0.00;0.00;;;;;;;9.75;100.00;99655.97;4862838;29;20092;-91
2023/05/17 09:56:36;;;;;;;0.00;0.00;;;;;;;9.85;100.00;99688.13;4877469;29;20075;-91
2023/05/17 09:59:03;;;;;;;0.10;0.10;;;;;;;9.93;100.00;99683.16;4857550;29;20052;-90
2023/05/17 10:01:30;;;;;;;0.10;0.10;;;;;;;9.92;100.00;99687.94;4861893;29;20044;-90
2023/05/17 10:04:02;;;;;;;0.00;0.00;;;;;;;9.99;100.00;99709.13;4851114;29;20056;-91
2023/05/17 10:06:29;;;;;;;0.10;0.10;;;;;;;9.88;100.00;99709.41;4869116;29;20139;-91
2023/05/17 10:08:57;;;;;;;2.15;0.88;;;;;;;9.95;100.00;99725.81;4861326;29;20083;-90
2023/05/17 10:11:32;;;;;;;0.32;0.32;;;;;;;9.87;100.00;99713.41;4861890;29;20045;-94
2023/05/17 10:14:11;;;;;;;0.20;0.20;;;;;;;9.97;100.00;99717.88;4853642;29;20127;-94
2023/05/17 10:16:37;;;;;;;0.75;0.63;;;;;;;9.94;100.00;99729.84;4894405;29;20101;-95
2023/05/17 10:19:04;;;;;;;0.38;0.20;;;;;;;9.98;100.00;99722.19;4862878;29;20049;-95
2023/05/17 10:21:30;;;;;;;0.00;0.00;;;;;;;9.76;100.00;99688.00;4853394;29;20461;-95
2023/05/17 10:23:57;;;;;;;0.10;0.10;;;;;;;9.98;100.00;99736.06;4863927;29;20078;-96
2023/05/17 10:26:23;;;;;;;0.05;0.05;;;;;;;9.78;100.00;99699.44;4833968;29;20049;-95
2023/05/17 10:28:52;;;;;;;0.10;0.10;;;;;;;9.89;100.00;99716.50;4851228;29;20049;-96
2023/05/17 10:31:19;;;;;;;0.20;0.20;;;;;;;9.68;100.00;99684.66;4847404;29;20049;-95
2023/05/17 10:33:46;;;;;;;0.30;0.30;;;;;;;9.43;100.00;99642.28;4853309;29;20049;-94
2023/05/17 10:36:16;;;;;;;0.15;0.15;;;;;;;9.55;100.00;99674.75;4852455;29;20045;-94
2023/05/17 10:38:41;;;;;;;0.52;0.40;;;;;;;9.46;100.00;99661.59;4864105;29;20045;-95
2023/05/17 10:41:09;;;;;;;0.00;0.00;;;;;;;9.48;100.00;99669.44;4852379;29;20052;-93
2023/05/17 10:43:36;;;;;;;0.10;0.10;;;;;;;9.74;100.00;99705.06;4857483;29;20056;-95
2023/05/17 10:46:02;;;;;;;0.90;0.32;;;;;;;9.50;100.00;99683.63;4847886;29;20077;-95
2023/05/17 10:48:29;;;;;;;0.00;0.00;;;;;;;9.53;100.00;99683.53;4855444;29;20121;-96
2023/05/17 10:50:55;;;;;;;0.32;0.32;;;;;;;9.56;100.00;99681.84;4847659;29;20443;-96
2023/05/17 10:53:21;;;;;;;0.15;0.15;;;;;;;9.60;100.00;99686.09;4847148;29;20048;-96
2023/05/17 10:55:46;;;;;;;0.10;0.10;;;;;;;9.51;100.00;99679.63;4834946;29;20045;-95
2023/05/17 10:58:18;;;;;;;0.00;0.00;;;;;;;9.59;100.00;99694.81;4863418;29;20045;-95
2023/05/17 11:00:48;;;;;;;4.95;1.52;;;;;;;9.49;100.00;99679.28;4861309;29;20052;-96
2023/05/17 11:03:17;;;;;;;0.45;0.45;;;;;;;9.64;100.00;99702.59;4860992;29;20068;-96
2023/05/17 11:06:11;;;;;;;0.00;0.00;;;;;;;9.86;100.00;99728.47;4832105;29;20048;-95
2023/05/17 11:08:44;;;;;;;0.45;0.45;;;;;;;9.62;100.00;99685.66;4873769;29;20156;-91
2023/05/17 11:11:12;;;;;;;0.00;0.00;;;;;;;9.52;100.00;99686.72;4891252;29;20136;-92
2023/05/17 11:13:57;;;;;;;0.00;0.00;;;;;;;9.75;100.00;99722.44;4873555;29;20152;-91
2023/05/17 11:16:36;;;;;;;0.38;0.38;;;;;;;9.80;100.00;99730.22;4852641;29;20057;-92
2023/05/17 11:19:07;;;;;;;0.20;0.20;;;;;;;9.58;100.00;99713.44;4859599;29;20045;-91
2023/05/17 11:21:34;;;;;;;0.70;0.70;;;;;;;9.75;100.00;99728.78;4891772;29;20500;-92
2023/05/17 11:24:02;;;;;;;0.52;0.52;;;;;;;9.65;100.00;99707.72;4851739;29;20052;-92
2023/05/17 11:26:36;;;;;;;0.08;0.08;;;;;;;10.01;100.00;99743.47;4871130;29;20045;-91